Upstream stations:
Downstream station:
SHEF ID: QUAO2 Spring River near Quapaw, OK
STATION TYPE:
Regulating: Stage = 20.00, Flow = 33676
PRECIP STAGE STAGE(2) RIV-FLOW BAT-LOAD
in ft ft cfs volt
Ccp-Rev Ccp-Rev Ccp-Rev Ccp-Rev Ccp-Rev
(US/Central)
03/23 00:00 0.00 12.90 13.13 12586 12.10
03/23 01:00 0.00 12.86 13.14 12491 12.02
03/23 02:00 0.00 12.90 13.12 12586 12.01
03/23 03:00 0.00 12.82 13.05 12396 11.98
03/23 04:00 0.00 12.72 12.97 12160 11.99
03/23 05:00 0.00 12.67 12.87 12042 12.00
03/23 06:00 0.00 12.53 12.76 11716 11.97
03/23 07:00 0.00 12.44 12.64 11508 11.96
03/23 08:00 0.00 12.30 12.53 11187 11.94
03/23 09:00 0.00 12.20 12.39 10960 11.96
03/23 10:00 0.00 12.07 12.27 10668 12.07
03/23 11:00 0.00 11.95 12.15 10402 12.03
03/23 12:00 0.00 11.79 12.02 10054 12.12
03/23 13:00 0.00 11.68 11.92 9814 12.39
03/23 14:00 0.00 11.58 11.82 9597 12.47
03/23 15:00 0.00 11.50 11.70 9423 12.34
03/23 16:00 0.00 11.39 11.61 9184 12.27
03/23 17:00 0.00 11.32 11.54 9034 12.30
03/23 18:00 0.00 11.28 11.46 8949 12.14
03/23 19:00 0.00 11.21 11.39 8801 12.05
03/23 20:00 0.00 11.13 11.33 8632 11.88
03/23 21:00 0.00 11.09 11.27 8548 11.92
03/23 22:00 0.00 11.02 11.21 8402 11.98
03/23 23:00 0.00 11.00 11.17 8360 11.91